createdAt,value
2022-09-16T00:01:00.281Z,9.80
2022-09-16T00:03:28.190Z,9.10
2022-09-16T00:05:58.566Z,9.10
2022-09-16T00:08:25.995Z,8.23
2022-09-16T00:10:53.336Z,8.73
2022-09-16T00:13:20.629Z,8.25
2022-09-16T00:15:51.248Z,8.32
2022-09-16T00:18:20.630Z,8.38
2022-09-16T00:20:50.900Z,8.68
2022-09-16T00:23:19.833Z,8.48
2022-09-16T00:25:55.265Z,7.85
2022-09-16T00:28:23.891Z,8.80
2022-09-16T00:30:51.819Z,8.60
2022-09-16T00:33:20.682Z,8.05
2022-09-16T00:35:48.467Z,8.00
2022-09-16T00:38:16.503Z,8.80
2022-09-16T00:40:49.242Z,7.80
2022-09-16T00:43:19.459Z,7.65
2022-09-16T00:45:55.825Z,7.75
2022-09-16T00:48:26.618Z,7.10
2022-09-16T00:51:06.053Z,7.85
2022-09-16T00:53:43.103Z,7.78
2022-09-16T00:56:14.433Z,7.82
2022-09-16T00:59:12.483Z,7.57
2022-09-16T01:01:43.419Z,7.18
2022-09-16T01:04:19.077Z,6.55
2022-09-16T01:06:46.652Z,7.57
2022-09-16T01:09:14.138Z,7.13
2022-09-16T01:11:41.497Z,6.65
2022-09-16T01:14:27.740Z,6.43
2022-09-16T01:17:06.968Z,7.07
2022-09-16T01:20:00.352Z,7.07
2022-09-16T01:23:02.749Z,6.95
2022-09-16T01:25:48.242Z,6.35
2022-09-16T01:28:53.115Z,6.55
2022-09-16T01:31:55.764Z,6.00
2022-09-16T01:34:36.253Z,6.40
2022-09-16T01:37:07.233Z,6.32
2022-09-16T01:39:48.723Z,5.85
2022-09-16T01:42:24.358Z,5.80
2022-09-16T01:45:18.097Z,5.70
2022-09-16T01:48:04.250Z,5.35
2022-09-16T01:50:40.159Z,5.75
2022-09-16T01:53:25.692Z,5.28
2022-09-16T01:56:15.614Z,5.35
2022-09-16T01:59:03.304Z,5.18
2022-09-16T02:01:47.981Z,5.47
2022-09-16T02:04:30.359Z,5.60
2022-09-16T02:07:01.370Z,5.00
2022-09-16T02:09:39.532Z,4.72
2022-09-16T02:12:16.828Z,5.30
2022-09-16T02:14:47.715Z,5.05
2022-09-16T02:17:23.559Z,4.75
2022-09-16T02:19:58.627Z,4.50
2022-09-16T02:22:32.586Z,4.55
2022-09-16T02:25:02.783Z,4.72
2022-09-16T02:27:32.144Z,4.80
2022-09-16T02:30:06.667Z,5.40
2022-09-16T02:32:37.798Z,5.32
2022-09-16T02:35:07.794Z,4.50
2022-09-16T02:37:46.400Z,4.80
2022-09-16T02:40:23.042Z,4.57
2022-09-16T02:42:50.643Z,4.80
2022-09-16T02:45:18.135Z,4.72
2022-09-16T02:47:48.186Z,3.95
2022-09-16T02:50:31.114Z,3.85
2022-09-16T02:53:07.589Z,4.30
2022-09-16T02:55:46.139Z,3.92
2022-09-16T02:58:13.576Z,3.50
2022-09-16T03:00:47.616Z,3.45
2022-09-16T03:03:15.466Z,3.58
2022-09-16T03:06:07.268Z,4.05
2022-09-16T03:08:36.549Z,3.63
2022-09-16T03:11:16.679Z,3.90
2022-09-16T03:13:55.358Z,3.17
2022-09-16T03:16:46.073Z,2.90
2022-09-16T03:19:16.649Z,3.25
2022-09-16T03:22:34.046Z,3.10
2022-09-16T03:25:11.185Z,3.38
2022-09-16T03:28:00.038Z,2.95
2022-09-16T03:30:30.805Z,3.05
2022-09-16T03:33:06.441Z,2.80
2022-09-16T03:35:33.704Z,2.53
2022-09-16T03:38:02.665Z,3.00
2022-09-16T03:40:33.084Z,2.90
2022-09-16T03:43:00.520Z,2.45
2022-09-16T03:45:27.798Z,3.10
2022-09-16T03:47:55.108Z,3.40
2022-09-16T03:50:22.735Z,2.97
2022-09-16T03:52:50.145Z,2.97
2022-09-16T03:55:17.587Z,2.60
2022-09-16T03:57:44.974Z,3.08
2022-09-16T04:00:16.312Z,2.97
2022-09-16T04:02:44.154Z,3.22
2022-09-16T04:05:11.812Z,2.53
2022-09-16T04:07:39.344Z,3.00
2022-09-16T04:10:07.509Z,2.92
2022-09-16T04:12:34.909Z,3.35
2022-09-16T04:15:16.436Z,2.92
2022-09-16T04:17:43.962Z,3.15
2022-09-16T04:20:11.287Z,2.60
2022-09-16T04:22:38.600Z,2.85
2022-09-16T04:25:06.395Z,2.60
2022-09-16T04:27:33.779Z,3.10
2022-09-16T04:30:01.180Z,3.10
2022-09-16T04:32:34.437Z,2.67
2022-09-16T04:35:01.741Z,4.15
2022-09-16T04:37:31.625Z,3.00
2022-09-16T04:40:07.319Z,3.42
2022-09-16T04:42:34.801Z,3.35
2022-09-16T04:45:02.219Z,3.50
2022-09-16T04:47:29.836Z,2.88
2022-09-16T04:49:57.324Z,2.97
2022-09-16T04:52:24.623Z,2.72
2022-09-16T04:54:51.911Z,3.30
2022-09-16T04:57:19.202Z,9.93
2022-09-16T04:59:46.611Z,7.50
2022-09-16T05:02:50.120Z,4.00
2022-09-16T05:05:17.657Z,3.10
2022-09-16T05:07:44.986Z,3.90
2022-09-16T05:10:12.608Z,5.57
2022-09-16T05:12:39.942Z,3.65
2022-09-16T05:15:08.023Z,4.05
2022-09-16T05:17:50.921Z,4.30
2022-09-16T05:20:19.039Z,4.40
2022-09-16T05:22:48.737Z,4.38
2022-09-16T05:25:16.168Z,4.70
2022-09-16T05:27:43.562Z,4.75
2022-09-16T05:30:11.584Z,4.68
2022-09-16T05:32:39.099Z,5.03
2022-09-16T05:35:18.338Z,4.53
2022-09-16T05:37:45.697Z,4.40
2022-09-16T05:40:13.066Z,5.38
2022-09-16T05:42:43.426Z,6.05
2022-09-16T05:45:10.990Z,4.82
2022-09-16T05:47:38.499Z,5.07
2022-09-16T05:50:06.383Z,4.78
2022-09-16T05:52:33.732Z,5.53
2022-09-16T05:55:01.042Z,5.82
2022-09-16T05:57:29.205Z,5.35
2022-09-16T06:00:06.755Z,5.97
2022-09-16T06:02:37.354Z,6.75
2022-09-16T06:05:05.005Z,6.05
2022-09-16T06:07:32.378Z,6.35
2022-09-16T06:09:59.958Z,7.22
2022-09-16T06:12:27.383Z,6.00
2022-09-16T06:14:54.710Z,6.70
2022-09-16T06:17:22.141Z,6.65
2022-09-16T06:19:49.483Z,6.60
2022-09-16T06:22:17.382Z,6.05
2022-09-16T06:24:49.504Z,6.10
2022-09-16T06:27:21.222Z,5.90
2022-09-16T06:29:48.838Z,5.18
2022-09-16T06:32:16.208Z,4.63
2022-09-16T06:34:43.527Z,4.70
2022-09-16T06:37:13.569Z,5.45
2022-09-16T06:39:40.848Z,4.65
2022-09-16T06:42:09.348Z,5.22
2022-09-16T06:44:41.638Z,5.38
2022-09-16T06:47:09.000Z,6.50
2022-09-16T06:49:36.483Z,5.30
2022-09-16T06:52:03.928Z,5.00
2022-09-16T06:54:32.128Z,5.35
2022-09-16T06:56:59.537Z,4.90
2022-09-16T06:59:26.782Z,5.10
2022-09-16T07:01:54.856Z,4.90
2022-09-16T07:04:25.039Z,5.28
2022-09-16T07:09:40.349Z,4.05
2022-09-16T07:12:08.573Z,4.80
2022-09-16T07:14:36.173Z,4.68
2022-09-16T07:17:03.784Z,4.93
2022-09-16T07:19:31.159Z,4.80
2022-09-16T07:21:58.594Z,5.00
2022-09-16T07:24:26.069Z,5.38
2022-09-16T07:26:53.379Z,4.45
2022-09-16T07:29:21.188Z,5.45
2022-09-16T07:31:48.475Z,5.35
2022-09-16T07:34:15.939Z,5.68
2022-09-16T07:36:49.078Z,5.45
2022-09-16T07:39:18.252Z,5.10
2022-09-16T07:41:48.765Z,4.88
2022-09-16T07:44:19.753Z,4.68
2022-09-16T07:46:48.579Z,4.57
2022-09-16T07:49:17.377Z,5.03
2022-09-16T07:51:45.091Z,4.68
2022-09-16T07:54:15.776Z,4.68
2022-09-16T07:56:44.384Z,6.22
2022-09-16T07:59:18.463Z,5.43
2022-09-16T08:01:46.938Z,5.50
2022-09-16T08:04:14.414Z,5.70
2022-09-16T08:06:42.053Z,5.03
2022-09-16T08:09:36.780Z,5.35
2022-09-16T08:11:57.123Z,4.43
2022-09-16T08:14:25.613Z,5.05
2022-09-16T08:16:53.018Z,4.43
2022-09-16T08:19:22.630Z,4.10
2022-09-16T08:21:50.353Z,3.97
2022-09-16T08:24:17.658Z,3.72
2022-09-16T08:26:45.085Z,3.88
2022-09-16T08:29:12.699Z,3.83
2022-09-16T08:31:40.408Z,4.22
2022-09-16T08:34:10.120Z,3.95
2022-09-16T08:36:38.896Z,3.40
2022-09-16T08:39:09.889Z,3.45
2022-09-16T08:42:02.048Z,3.10
2022-09-16T08:45:00.586Z,3.30
2022-09-16T08:47:57.930Z,3.05
2022-09-16T08:50:37.946Z,3.22
2022-09-16T08:53:13.107Z,3.17
2022-09-16T08:55:48.699Z,3.30
2022-09-16T08:58:46.966Z,3.50
2022-09-16T09:01:41.936Z,3.55
2022-09-16T09:04:09.591Z,3.45
2022-09-16T09:06:59.086Z,3.78
2022-09-16T09:09:41.681Z,3.40
2022-09-16T09:12:22.072Z,3.40
2022-09-16T09:15:32.821Z,3.15
2022-09-16T09:18:30.814Z,3.22
2022-09-16T09:20:58.080Z,3.20
2022-09-16T09:23:43.445Z,3.40
2022-09-16T09:26:25.922Z,3.45
2022-09-16T09:29:17.899Z,3.72
2022-09-16T09:31:51.218Z,2.97
2022-09-16T09:34:52.459Z,4.07
2022-09-16T09:37:58.055Z,3.95
2022-09-16T09:40:46.602Z,3.70
2022-09-16T09:43:53.705Z,4.30
2022-09-16T09:46:29.260Z,3.03
2022-09-16T09:49:39.408Z,2.80
2022-09-16T09:52:42.761Z,3.92
2022-09-16T09:55:20.400Z,2.50
2022-09-16T09:58:06.035Z,2.92
2022-09-16T10:00:33.440Z,3.13
2022-09-16T10:03:14.876Z,2.50
2022-09-16T10:05:42.374Z,3.42
2022-09-16T10:08:15.822Z,2.92
2022-09-16T10:10:50.856Z,2.30
2022-09-16T10:13:19.689Z,2.53
2022-09-16T10:15:51.970Z,2.92
2022-09-16T10:18:26.546Z,2.70
2022-09-16T10:21:13.145Z,2.70
2022-09-16T10:23:41.017Z,7.03
2022-09-16T10:26:20.395Z,6.85
2022-09-16T10:29:00.300Z,3.63
2022-09-16T10:31:37.290Z,4.00
2022-09-16T10:34:14.380Z,3.38
2022-09-16T10:36:41.746Z,3.28
2022-09-16T10:39:23.395Z,3.30
2022-09-16T10:41:50.845Z,3.40
2022-09-16T10:44:22.195Z,4.03
2022-09-16T10:46:53.898Z,2.85
2022-09-16T10:49:31.071Z,3.10
2022-09-16T10:52:09.435Z,3.03
2022-09-16T10:54:38.211Z,3.17
2022-09-16T10:57:20.261Z,3.20
2022-09-16T11:00:05.404Z,3.00
2022-09-16T11:03:03.765Z,3.63
2022-09-16T11:05:45.519Z,3.38
2022-09-16T11:08:18.820Z,3.40
2022-09-16T11:11:11.831Z,2.80
2022-09-16T11:13:42.230Z,2.75
2022-09-16T11:16:34.890Z,4.30
2022-09-16T11:19:25.381Z,3.15
2022-09-16T11:22:17.207Z,2.50
2022-09-16T11:25:03.394Z,2.65
2022-09-16T11:27:37.036Z,2.60
2022-09-16T11:30:14.641Z,2.45
2022-09-16T11:33:03.642Z,2.67
2022-09-16T11:36:01.460Z,3.28
2022-09-16T11:38:55.973Z,3.03
2022-09-16T11:41:59.894Z,2.80
2022-09-16T11:44:48.939Z,2.70
2022-09-16T11:47:40.486Z,2.30
2022-09-16T11:50:18.849Z,2.58
2022-09-16T11:53:05.999Z,2.80
2022-09-16T11:56:06.250Z,2.72
2022-09-16T11:58:49.264Z,2.75
2022-09-16T12:01:35.594Z,3.03
2022-09-16T12:04:19.880Z,3.30
2022-09-16T12:07:07.164Z,3.10
2022-09-16T12:09:40.905Z,3.13
2022-09-16T12:12:16.763Z,4.03
2022-09-16T12:14:53.846Z,3.70
2022-09-16T12:17:25.244Z,4.22
2022-09-16T12:19:59.830Z,3.40
2022-09-16T12:22:34.223Z,3.78
2022-09-16T12:25:09.765Z,3.10
2022-09-16T12:27:45.388Z,3.20
2022-09-16T12:30:20.176Z,2.78
2022-09-16T12:33:22.557Z,3.40
2022-09-16T12:36:13.029Z,3.15
2022-09-16T12:38:41.025Z,2.83
2022-09-16T12:41:13.552Z,2.72
2022-09-16T12:43:50.123Z,2.90
2022-09-16T12:46:49.747Z,3.33
2022-09-16T12:49:54.946Z,2.97
2022-09-16T12:52:40.028Z,2.83
2022-09-16T12:55:31.812Z,3.70
2022-09-16T12:58:13.696Z,3.83
2022-09-16T13:00:56.535Z,4.03
2022-09-16T13:03:28.114Z,3.47
2022-09-16T13:05:59.073Z,4.30
2022-09-16T13:08:32.968Z,3.42
2022-09-16T13:12:16.152Z,3.05
2022-09-16T13:13:56.747Z,2.63
2022-09-16T13:16:37.282Z,2.67
2022-09-16T13:19:34.472Z,4.15
2022-09-16T13:22:17.148Z,3.03
2022-09-16T13:24:53.600Z,3.17
2022-09-16T13:30:19.283Z,2.50
2022-09-16T13:33:16.723Z,3.20
2022-09-16T13:36:11.459Z,2.95
2022-09-16T13:38:47.924Z,2.88
2022-09-16T13:41:28.364Z,2.90
2022-09-16T13:43:55.895Z,2.75
2022-09-16T13:46:29.824Z,3.05
2022-09-16T13:49:12.224Z,2.50
2022-09-16T13:51:49.242Z,3.20
2022-09-16T13:54:28.724Z,2.90
2022-09-16T13:57:17.232Z,3.05
2022-09-16T13:59:47.565Z,3.70
2022-09-16T14:02:31.242Z,3.17
2022-09-16T14:05:43.259Z,3.20
2022-09-16T14:08:12.210Z,3.22
2022-09-16T14:11:04.514Z,2.92
2022-09-16T14:14:06.134Z,3.35
2022-09-16T14:16:43.028Z,2.97
2022-09-16T14:19:28.400Z,3.78
2022-09-16T14:24:36.994Z,2.65
2022-09-16T14:27:06.127Z,2.83
2022-09-16T14:29:38.829Z,3.10
2022-09-16T14:32:14.498Z,2.70
2022-09-16T14:34:41.945Z,3.25
2022-09-16T14:37:17.031Z,4.03
2022-09-16T14:39:50.891Z,3.33
2022-09-16T14:42:27.196Z,3.92
2022-09-16T14:44:56.890Z,3.72
2022-09-16T14:50:52.685Z,3.42
2022-09-16T14:53:36.392Z,3.22
2022-09-16T14:56:09.051Z,3.53
2022-09-16T14:58:39.011Z,3.20
2022-09-16T15:01:12.363Z,3.10
2022-09-16T15:04:04.411Z,3.15
2022-09-16T15:06:37.536Z,3.45
2022-09-16T15:09:19.943Z,2.97
2022-09-16T15:11:53.062Z,3.42
2022-09-16T15:14:23.777Z,3.33
2022-09-16T15:16:55.837Z,3.78
2022-09-16T15:19:45.106Z,3.50
2022-09-16T15:22:15.571Z,3.85
2022-09-16T15:24:44.265Z,3.42
2022-09-16T15:27:11.654Z,3.40
2022-09-16T15:32:44.450Z,3.33
2022-09-16T15:35:26.196Z,4.45
2022-09-16T15:37:54.838Z,2.92
2022-09-16T15:40:26.645Z,3.30
2022-09-16T15:43:22.107Z,3.50
2022-09-16T15:46:16.465Z,6.35
2022-09-16T15:48:56.232Z,4.15
2022-09-16T15:51:36.661Z,3.72
2022-09-16T15:54:22.990Z,3.65
2022-09-16T15:57:22.717Z,4.35
2022-09-16T15:59:55.266Z,5.30
2022-09-16T16:02:35.303Z,4.80
2022-09-16T16:05:13.312Z,6.35
2022-09-16T16:07:54.198Z,4.75
2022-09-16T16:10:27.042Z,6.80
2022-09-16T16:13:00.552Z,5.55
2022-09-16T16:15:41.073Z,5.53
2022-09-16T16:18:12.178Z,5.95
2022-09-16T16:22:21.780Z,6.28
2022-09-16T16:23:38.162Z,6.03
2022-09-16T16:26:10.609Z,5.68
2022-09-16T16:28:40.520Z,6.43
2022-09-16T16:31:13.915Z,9.00
2022-09-16T16:33:55.301Z,6.05
2022-09-16T16:36:23.023Z,5.95
2022-09-16T16:38:51.675Z,6.75
2022-09-16T16:41:24.055Z,5.28
2022-09-16T16:43:52.029Z,20.30
2022-09-16T16:46:19.545Z,5.90
2022-09-16T16:48:47.754Z,4.68
2022-09-16T16:51:15.094Z,4.63
2022-09-16T16:53:42.465Z,6.10
2022-09-16T16:56:15.210Z,4.53
2022-09-16T16:58:46.078Z,6.63
2022-09-16T17:01:16.573Z,5.55
2022-09-16T17:03:46.546Z,5.35
2022-09-16T17:06:14.352Z,4.43
2022-09-16T17:08:41.993Z,3.53
2022-09-16T17:11:14.975Z,3.90
2022-09-16T17:13:45.633Z,3.70
2022-09-16T17:16:16.223Z,3.85
2022-09-16T17:18:44.152Z,3.60
2022-09-16T17:21:17.464Z,4.97
2022-09-16T17:23:45.574Z,4.70
2022-09-16T17:26:14.174Z,4.20
2022-09-16T17:28:44.103Z,3.33
2022-09-16T17:31:15.287Z,3.97
2022-09-16T17:33:43.953Z,4.05
2022-09-16T17:36:13.836Z,3.60
2022-09-16T17:38:41.624Z,3.28
2022-09-16T17:41:14.332Z,3.35
2022-09-16T17:43:42.977Z,3.20
2022-09-16T17:46:16.219Z,3.38
2022-09-16T17:48:44.151Z,3.70
2022-09-16T17:51:14.749Z,4.00
2022-09-16T17:53:42.055Z,4.18
2022-09-16T17:56:13.587Z,3.83
2022-09-16T17:58:44.767Z,3.95
2022-09-16T18:01:16.799Z,4.53
2022-09-16T18:03:46.512Z,4.28
2022-09-16T18:06:17.403Z,4.70
2022-09-16T18:08:45.680Z,4.38
2022-09-16T18:11:15.152Z,4.10
2022-09-16T18:13:43.066Z,4.10
2022-09-16T18:16:17.077Z,5.05
2022-09-16T18:18:45.811Z,5.07
2022-09-16T18:21:15.534Z,5.35
2022-09-16T18:23:48.901Z,6.45
2022-09-16T18:26:17.431Z,5.35
2022-09-16T18:29:08.516Z,5.50
2022-09-16T18:31:35.178Z,4.88
2022-09-16T18:34:02.493Z,4.88
2022-09-16T18:36:30.515Z,4.95
2022-09-16T18:38:59.519Z,5.18
2022-09-16T18:41:30.258Z,5.68
2022-09-16T18:44:05.377Z,4.97
2022-09-16T18:46:38.048Z,5.50
2022-09-16T18:49:06.507Z,5.35
2022-09-16T18:51:36.641Z,5.78
2022-09-16T18:54:16.407Z,5.97
2022-09-16T18:56:43.938Z,5.88
2022-09-16T18:59:22.642Z,5.90
2022-09-16T19:01:56.846Z,6.45
2022-09-16T19:04:30.439Z,6.30
2022-09-16T19:07:06.258Z,6.82
2022-09-16T19:09:36.520Z,6.30
2022-09-16T19:12:05.572Z,5.95
2022-09-16T19:14:33.010Z,5.35
2022-09-16T19:17:07.799Z,5.38
2022-09-16T19:19:35.554Z,5.32
2022-09-16T19:22:06.181Z,5.18
2022-09-16T19:24:34.411Z,4.28
2022-09-16T19:27:01.882Z,4.95
2022-09-16T19:29:29.230Z,5.10
2022-09-16T19:31:57.711Z,4.97
2022-09-16T19:34:25.051Z,4.35
2022-09-16T19:36:52.775Z,4.03
2022-09-16T19:39:21.441Z,4.72
2022-09-16T19:41:48.983Z,4.40
2022-09-16T19:44:17.908Z,4.68
2022-09-16T19:46:49.615Z,4.45
2022-09-16T19:49:21.086Z,4.68
2022-09-16T19:51:49.588Z,4.70
2022-09-16T19:54:17.273Z,4.13
2022-09-16T19:56:49.486Z,4.28
2022-09-16T19:59:18.179Z,3.97
2022-09-16T20:01:45.531Z,5.25
2022-09-16T20:04:13.050Z,4.75
2022-09-16T20:06:42.271Z,4.15
2022-09-16T20:09:12.535Z,4.75
2022-09-16T20:11:43.909Z,4.60
2022-09-16T20:14:19.190Z,4.32
2022-09-16T20:19:16.429Z,3.85
2022-09-16T20:21:44.733Z,4.50
2022-09-16T20:24:22.029Z,4.25
2022-09-16T20:26:51.653Z,4.60
2022-09-16T20:29:20.363Z,4.32
2022-09-16T20:31:49.435Z,4.47
2022-09-16T20:34:17.256Z,4.72
2022-09-16T20:36:46.146Z,5.32
2022-09-16T20:39:14.801Z,4.60
2022-09-16T20:41:45.841Z,4.88
2022-09-16T20:44:14.977Z,4.47
2022-09-16T20:46:42.433Z,5.13
2022-09-16T20:49:16.084Z,4.90
2022-09-16T20:51:43.918Z,5.47
2022-09-16T20:54:14.060Z,5.30
2022-09-16T20:56:43.724Z,4.90
2022-09-16T20:59:15.229Z,5.88
2022-09-16T21:01:42.832Z,5.65
2022-09-16T21:04:15.767Z,5.25
2022-09-16T21:06:43.432Z,5.45
2022-09-16T21:09:13.544Z,5.68
2022-09-16T21:11:44.926Z,5.20
2022-09-16T21:14:15.509Z,5.68
2022-09-16T21:16:44.023Z,6.40
2022-09-16T21:19:13.771Z,6.03
2022-09-16T21:21:44.591Z,5.55
2022-09-16T21:24:13.386Z,6.25
2022-09-16T21:26:41.679Z,5.80
2022-09-16T21:29:11.826Z,6.50
2022-09-16T21:31:41.452Z,5.75
2022-09-16T21:34:17.106Z,6.13
2022-09-16T21:36:45.274Z,6.30
2022-09-16T21:39:17.601Z,6.10
2022-09-16T21:41:46.330Z,6.05
2022-09-16T21:44:21.268Z,5.55
2022-09-16T21:46:51.109Z,5.78
2022-09-16T21:49:30.520Z,5.38
2022-09-16T21:51:59.008Z,6.05
2022-09-16T21:54:28.286Z,5.68
2022-09-16T21:56:55.736Z,6.25
2022-09-16T21:59:23.213Z,5.15
2022-09-16T22:01:51.879Z,5.47
2022-09-16T22:04:22.056Z,5.22
2022-09-16T22:06:51.092Z,4.72
2022-09-16T22:09:18.868Z,4.57
2022-09-16T22:11:46.418Z,3.60
2022-09-16T22:14:14.216Z,3.83
2022-09-16T22:16:41.744Z,3.50
2022-09-16T22:19:14.872Z,3.35
2022-09-16T22:21:45.348Z,3.47
2022-09-16T22:24:13.928Z,3.70
2022-09-16T22:26:41.722Z,3.25
2022-09-16T22:29:10.816Z,3.58
2022-09-16T22:31:41.587Z,3.67
2022-09-16T22:34:09.663Z,3.97
2022-09-16T22:36:37.980Z,3.90
2022-09-16T22:39:11.531Z,3.67
2022-09-16T22:41:39.204Z,3.67
2022-09-16T22:44:07.074Z,3.92
2022-09-16T22:46:39.349Z,3.22
2022-09-16T22:49:06.737Z,3.85
2022-09-16T22:51:34.182Z,3.10
2022-09-16T22:54:05.304Z,3.53
2022-09-16T22:56:33.814Z,3.47
2022-09-16T22:59:03.246Z,3.70
2022-09-16T23:01:37.700Z,3.08
2022-09-16T23:04:06.768Z,3.35
2022-09-16T23:06:34.974Z,3.47
2022-09-16T23:09:02.907Z,3.42
2022-09-16T23:11:33.397Z,3.55
2022-09-16T23:14:01.576Z,3.22
2022-09-16T23:16:32.019Z,3.90
2022-09-16T23:19:03.572Z,3.47
2022-09-16T23:21:35.824Z,3.70
2022-09-16T23:24:07.118Z,3.17
2022-09-16T23:26:37.500Z,3.33
2022-09-16T23:29:08.506Z,3.22
2022-09-16T23:31:40.545Z,3.50
2022-09-16T23:34:19.956Z,3.50
2022-09-16T23:36:48.402Z,3.60
2022-09-16T23:39:17.073Z,3.15
2022-09-16T23:41:45.358Z,3.95
2022-09-16T23:44:14.590Z,3.78
2022-09-16T23:46:42.214Z,3.65
2022-09-16T23:49:10.447Z,3.78
2022-09-16T23:51:37.811Z,3.53
2022-09-16T23:54:05.521Z,4.18
2022-09-16T23:56:33.029Z,3.22
2022-09-16T23:59:01.076Z,3.70
